Aérodrome :
LOGIN :

S'inscrire | Disclaimer

   EN    FR    IT 

 










Légende :    VFR   VFR Marginal   IFR   IFR Intensif   IFR Très Intensif
Visi : 
Plafond : 
>= 8 km
>= 3000ft
5 à 8 km
1000 à 3000 ft
1500m à 5 km
500 à 1000 ft
800 à 1500m
200 à 500 ft
< 800m
< 200 ft
Symboles :   Orages  Brouillard  Fortes neiges  Fortes précipitations  Vent > 20 kt
SIGMETs :   Divers  Orages  Givrage  Turbulence  Onde Orograph.  Cendres Volcan.






- Altitude de l'aérodrome : 162 ft
- Code IATA : BOD


LFBD - Bordeaux / Merignac

DERNIER METAR :
  • 140130Z AUTO 23005KT 9999 -RA BKN030 BKN039 BKN054 08/07 Q0999 TEMPO 4000 SHRA FEW015CB BKN030TCU

METARs EXPIRÉS :
  • 140100Z AUTO 26004KT 9999 RA FEW032/// SCT040/// OVC054/// ///TCU 08/07 Q0999 TEMPO 4000 SHRA FEW015CB BKN030TCU
  • 140030Z AUTO 27007KT 9999 -RA FEW030/// SCT037/// BKN046/// ///TCU 08/07 Q1000 TEMPO 4000 SHRA FEW015CB BKN030TCU
  • 140000Z AUTO 30016G27KT 270V330 7000 -RA FEW013/// BKN019/// BKN033/// ///CB 08/07 Q1000 TEMPO 3000 RA BECMG 24012KT NSC
  • 132330Z AUTO 31016G27KT 7000 RA SCT009/// BKN015/// BKN021/// ///CB 09/08 Q1000 TEMPO 3000 RA BECMG 24012KT NSC
  • 132300Z AUTO 25009KT 210V280 5000 +RA BR SCT009/// BKN013/// BKN020/// ///CB 10/09 Q0999 BECMG NSW NSC

TAF AMD TAF LFBD
Valide du 14 à 00h jusqu'au 15 à 06h UTC


140008Z 1400/1506 24012KT 5000 -RA BKN045 TX10/1414Z TN05/1424Z
TEMPO 1400/1401 30015G25KT 3000 RA BKN010
BECMG 1401/1402 CAVOK
TEMPO 1402/1414 4000 SHRA FEW015CB BKN030TCU
BECMG 1414/1416 VRB02KT
PROB30 1503/1506 3000 BR
ATIS : +33 5 57 92 81 04



MET'MAP, la Météo Aéronautique d'un coup d'oeil ! - Copyright ORBIFLY Décembre 2007 - Disclaimer

ORBIFLY MET'MAP TEAM :

Programmation & Développement : Alexandra Zaïnal
Conception & Développement : Baudouin d'Aumeries
Co-Programmation & Développement : Marc-Olivier Méhu
Soutien technique & logistique : Manuel Goepfert

Contact : metmap@orbifly.com




SOURCES & CREDITS :

   NOAA